PILOTS ONLINE: 374    ATC ONLINE: 38

CYIK

Ivujivik Airport

Location

IATA YIK
City Ivujivik
Country  Canada
Latitude 62° 25' 2" N
Longitude 77° 55' 31" W
Elevation 126 ft
Type Medium Airport

Map

Weather

METAR
2014/10/21 13:00
CYIK 211300Z 24008KT 8SM -SN BKN007 BKN080 M03/M04 A2998 RMK SF4AC1 SLP157
TAF
2014/10/20 14:00
TAF CYIK 201338Z 2014/2021 17015KT P6SM BKN015 
      TEMPO 2014/2018 BKN025 
     FM201800 19015KT P6SM BKN025 
      TEMPO 2018/2021 3SM -SN BKN020 
      RMK NXT FCST WILL BE ISSUED AT 211345Z

Runways

08/26 3521 ft / 100 ft

Outbound flights

Callsign Flying to Pilot ATD/STD ETA Aircraft

Inbound flights

Callsign Flying from Pilot ATD ETA Aircraft